Time;durP1;ratioP1;P1;durP2;ratioP2;P2;SDS_P1;SDS_P2;PMS_P1;PMS_P2;Temp;Humidity;BMP_temperature;BMP_pressure;BME280_temperature;BME280_humidity;BME280_pressure;Samples;Min_cycle;Max_cycle;Signal;HPM_P1;HPM_P2
2022/08/19 00:01:20;;;;;;;;;;;18.40;99.90;;;;;;5119845;27;19918;-56
2022/08/19 00:04:00;;;;;;;;;;;18.40;99.90;;;;;;5124705;27;19977;-55
2022/08/19 00:06:42;;;;;;;;;;;18.40;99.90;;;;;;5125025;27;19918;-56
2022/08/19 00:09:23;;;;;;;;;;;18.50;99.90;;;;;;5125052;27;19922;-56
2022/08/19 00:12:04;;;;;;;;;;;18.60;99.90;;;;;;5105719;27;19912;-56
2022/08/19 00:14:45;;;;;;;;;;;18.60;99.90;;;;;;5104779;27;20392;-56
2022/08/19 00:17:25;;;;;;;;;;;18.60;99.90;;;;;;5124444;27;19922;-56
2022/08/19 00:20:05;;;;;;;;;;;18.60;99.90;;;;;;5128290;27;19911;-56
2022/08/19 00:22:47;;;;;;;;;;;18.50;99.90;;;;;;5163550;27;19926;-56
2022/08/19 00:25:26;;;;;;;;;;;18.60;99.90;;;;;;5084239;28;19912;-56
2022/08/19 00:28:06;;;;;;;;;;;18.50;99.90;;;;;;5122864;27;20362;-56
2022/08/19 00:30:46;;;;;;;;;;;18.40;99.90;;;;;;5116265;27;19920;-56
2022/08/19 00:33:26;;;;;;;;;;;18.40;99.90;;;;;;5111972;27;19973;-56
2022/08/19 00:36:07;;;;;;;;;;;18.30;99.90;;;;;;5123911;27;19926;-56
2022/08/19 00:38:47;;;;;;;;;;;18.30;99.90;;;;;;5124869;27;19922;-56
2022/08/19 00:41:27;;;;;;;;;;;18.20;99.90;;;;;;5125498;27;19918;-56
2022/08/19 00:44:08;;;;;;;;;;;18.20;99.90;;;;;;5125539;27;19941;-55
2022/08/19 00:46:49;;;;;;;;;;;18.10;99.90;;;;;;5125498;27;19912;-56
2022/08/19 00:49:32;;;;;;;;;;;18.00;99.90;;;;;;5124014;27;20316;-56
2022/08/19 00:52:14;;;;;;;;;;;17.80;99.90;;;;;;5105478;27;19922;-56
2022/08/19 00:54:56;;;;;;;;;;;17.80;99.90;;;;;;5125485;27;19922;-56
2022/08/19 00:57:39;;;;;;;;;;;17.80;99.90;;;;;;5124979;27;19938;-56
2022/08/19 01:00:19;;;;;;;;;;;17.80;99.90;;;;;;5115554;27;19912;-56
2022/08/19 01:03:03;;;;;;;;;;;17.80;99.90;;;;;;5110815;27;19912;-55
2022/08/19 01:05:44;;;;;;;;;;;17.90;99.90;;;;;;5121014;27;19912;-55
2022/08/19 01:08:24;;;;;;;;;;;18.00;99.90;;;;;;5117919;27;19922;-56
2022/08/19 01:11:04;;;;;;;;;;;18.00;99.90;;;;;;5115430;27;20150;-55
2022/08/19 01:13:47;;;;;;;;;;;18.00;99.90;;;;;;5125174;27;20312;-55
2022/08/19 01:16:28;;;;;;;;;;;18.00;99.90;;;;;;5123816;27;20404;-55
2022/08/19 01:19:13;;;;;;;;;;;18.10;99.90;;;;;;5154119;27;19922;-56
2022/08/19 01:21:56;;;;;;;;;;;18.10;99.90;;;;;;5149541;27;20383;-56
2022/08/19 01:24:36;;;;;;;;;;;18.00;99.90;;;;;;5130546;22;19924;-55
2022/08/19 01:27:16;;;;;;;;;;;18.10;99.90;;;;;;5104840;27;19927;-56
2022/08/19 01:29:56;;;;;;;;;;;18.10;99.90;;;;;;5144995;27;19915;-56
2022/08/19 01:32:35;;;;;;;;;;;18.10;99.90;;;;;;5125290;27;19926;-56
2022/08/19 01:35:17;;;;;;;;;;;18.20;99.90;;;;;;5124902;27;19912;-56
2022/08/19 01:37:59;;;;;;;;;;;18.20;99.90;;;;;;5124791;27;19922;-56
2022/08/19 01:40:41;;;;;;;;;;;18.30;99.90;;;;;;5111429;27;19926;-55
2022/08/19 01:43:21;;;;;;;;;;;18.30;99.90;;;;;;5125026;27;19918;-56
2022/08/19 01:46:01;;;;;;;;;;;18.30;99.90;;;;;;5125065;27;19934;-56
2022/08/19 01:48:41;;;;;;;;;;;18.40;99.90;;;;;;5124654;27;19912;-56
2022/08/19 01:51:22;;;;;;;;;;;18.40;99.90;;;;;;5105321;27;19912;-55
2022/08/19 01:54:02;;;;;;;;;;;18.40;99.90;;;;;;5125872;27;19953;-56
2022/08/19 01:56:42;;;;;;;;;;;18.40;99.90;;;;;;5125187;27;20296;-56
2022/08/19 01:59:23;;;;;;;;;;;18.40;99.90;;;;;;5125242;27;19912;-56
2022/08/19 02:02:06;;;;;;;;;;;18.40;99.90;;;;;;5125719;27;19912;-56
2022/08/19 02:04:47;;;;;;;;;;;18.40;99.90;;;;;;5125137;27;19922;-56
2022/08/19 02:07:28;;;;;;;;;;;18.40;99.90;;;;;;5124774;27;19969;-55
2022/08/19 02:10:11;;;;;;;;;;;18.40;99.90;;;;;;5103650;27;20466;-56
2022/08/19 02:12:52;;;;;;;;;;;18.40;99.90;;;;;;5125223;27;19918;-56
2022/08/19 02:15:32;;;;;;;;;;;18.40;99.90;;;;;;5124406;27;19918;-55
2022/08/19 02:18:12;;;;;;;;;;;18.40;99.90;;;;;;5124429;27;20323;-56
2022/08/19 02:20:52;;;;;;;;;;;18.40;99.90;;;;;;5124664;27;20400;-56
2022/08/19 02:23:32;;;;;;;;;;;18.40;99.90;;;;;;5122441;27;19918;-56
2022/08/19 02:26:12;;;;;;;;;;;18.40;99.90;;;;;;5125240;27;19912;-56
2022/08/19 02:28:53;;;;;;;;;;;18.40;99.90;;;;;;5103953;27;19920;-56
2022/08/19 02:31:33;;;;;;;;;;;18.40;99.90;;;;;;5104902;27;19912;-56
2022/08/19 02:34:12;;;;;;;;;;;18.40;99.90;;;;;;5116879;27;20100;-56
2022/08/19 02:36:52;;;;;;;;;;;18.30;99.90;;;;;;5125084;27;19912;-57
2022/08/19 02:39:32;;;;;;;;;;;18.30;99.90;;;;;;5148004;27;19918;-55
2022/08/19 02:42:12;;;;;;;;;;;18.30;99.90;;;;;;5125073;27;20273;-56
2022/08/19 02:44:52;;;;;;;;;;;18.30;99.90;;;;;;5104374;27;19949;-56
2022/08/19 02:47:31;;;;;;;;;;;18.30;99.90;;;;;;5124621;27;19922;-56
2022/08/19 02:50:12;;;;;;;;;;;18.40;99.90;;;;;;5124722;27;19912;-56
2022/08/19 02:52:53;;;;;;;;;;;18.30;99.90;;;;;;5121476;27;19926;-56
2022/08/19 02:55:32;;;;;;;;;;;18.30;99.90;;;;;;5104064;27;19930;-56
2022/08/19 02:58:12;;;;;;;;;;;18.30;99.90;;;;;;5125067;27;19915;-56
2022/08/19 03:00:53;;;;;;;;;;;18.40;99.90;;;;;;5124176;27;19919;-56
2022/08/19 03:03:34;;;;;;;;;;;18.40;99.90;;;;;;5101625;27;19931;-55
2022/08/19 03:06:15;;;;;;;;;;;18.30;99.90;;;;;;5104267;27;19927;-56
2022/08/19 03:08:55;;;;;;;;;;;18.40;99.90;;;;;;5125369;27;19911;-56
2022/08/19 03:11:36;;;;;;;;;;;18.40;99.90;;;;;;5124943;27;19912;-56
2022/08/19 03:14:17;;;;;;;;;;;18.40;99.90;;;;;;5115656;27;19918;-56
2022/08/19 03:16:58;;;;;;;;;;;18.40;99.90;;;;;;5124849;27;20418;-56
2022/08/19 03:19:38;;;;;;;;;;;18.40;99.90;;;;;;5122243;27;19912;-56
2022/08/19 03:22:17;;;;;;;;;;;18.40;99.90;;;;;;5125180;27;19912;-56
2022/08/19 03:24:58;;;;;;;;;;;18.30;99.90;;;;;;5124268;27;19912;-56
2022/08/19 03:27:38;;;;;;;;;;;18.40;99.90;;;;;;5124936;27;19912;-56
2022/08/19 03:30:18;;;;;;;;;;;18.30;99.90;;;;;;5124957;27;20089;-56
2022/08/19 03:32:58;;;;;;;;;;;18.30;99.90;;;;;;5124976;27;19918;-56
2022/08/19 03:35:38;;;;;;;;;;;18.30;99.90;;;;;;5124944;27;19927;-56
2022/08/19 03:38:18;;;;;;;;;;;18.30;99.90;;;;;;5125247;27;19922;-56
2022/08/19 03:40:58;;;;;;;;;;;18.30;99.90;;;;;;5124904;27;20384;-57
2022/08/19 03:43:38;;;;;;;;;;;18.30;99.90;;;;;;5125407;27;19918;-53
2022/08/19 03:46:20;;;;;;;;;;;18.30;99.90;;;;;;5125460;27;19922;-56
2022/08/19 03:49:02;;;;;;;;;;;18.30;99.90;;;;;;5124437;27;19918;-56
2022/08/19 03:51:44;;;;;;;;;;;18.30;99.90;;;;;;5125146;27;19941;-56
2022/08/19 03:54:24;;;;;;;;;;;18.20;99.90;;;;;;5115653;27;19912;-56
2022/08/19 03:57:05;;;;;;;;;;;18.20;99.90;;;;;;5125183;27;19946;-56
2022/08/19 03:59:44;;;;;;;;;;;18.20;99.90;;;;;;5103860;27;19926;-56
2022/08/19 04:02:24;;;;;;;;;;;18.20;99.90;;;;;;5145990;27;19922;-56
2022/08/19 04:05:04;;;;;;;;;;;18.20;99.90;;;;;;5104446;27;20153;-57
2022/08/19 04:07:44;;;;;;;;;;;18.30;99.90;;;;;;5084012;28;19916;-56
2022/08/19 04:10:24;;;;;;;;;;;18.30;99.90;;;;;;5103788;27;20335;-56
2022/08/19 04:13:05;;;;;;;;;;;18.30;99.90;;;;;;5105097;27;19926;-56
2022/08/19 04:15:46;;;;;;;;;;;18.30;99.90;;;;;;5124960;27;19912;-56
2022/08/19 04:18:29;;;;;;;;;;;18.30;99.90;;;;;;5104957;27;19916;-56
2022/08/19 04:21:16;;;;;;;;;;;18.40;99.90;;;;;;5103871;27;19930;-56
2022/08/19 04:23:56;;;;;;;;;;;18.40;99.90;;;;;;5119252;27;19916;-56
2022/08/19 04:26:38;;;;;;;;;;;18.40;99.90;;;;;;5125000;27;19938;-55
2022/08/19 04:29:21;;;;;;;;;;;18.40;99.90;;;;;;5123332;27;19918;-56
2022/08/19 04:32:02;;;;;;;;;;;18.50;99.90;;;;;;5125158;27;19912;-56
2022/08/19 04:34:42;;;;;;;;;;;18.40;99.90;;;;;;5112731;27;19945;-55
2022/08/19 04:37:24;;;;;;;;;;;18.40;99.90;;;;;;5125230;27;20373;-56
2022/08/19 04:43:03;;;;;;;;;;;18.50;99.90;;;;;;5125227;27;19918;-56
2022/08/19 04:45:44;;;;;;;;;;;18.50;99.90;;;;;;5124729;27;19912;-56
2022/08/19 04:48:26;;;;;;;;;;;18.50;99.90;;;;;;5125002;27;19918;-56
2022/08/19 04:51:09;;;;;;;;;;;18.60;99.90;;;;;;5104087;27;20348;-56
2022/08/19 04:53:49;;;;;;;;;;;18.60;99.90;;;;;;5099879;27;20320;-55
2022/08/19 04:56:29;;;;;;;;;;;18.60;99.90;;;;;;5124754;27;20341;-54
2022/08/19 04:59:10;;;;;;;;;;;18.60;99.90;;;;;;5124152;27;20333;-56
2022/08/19 05:01:50;;;;;;;;;;;18.60;99.90;;;;;;5125585;27;19926;-56
2022/08/19 05:04:31;;;;;;;;;;;18.70;99.90;;;;;;5124996;27;19916;-56
2022/08/19 05:07:11;;;;;;;;;;;18.70;99.90;;;;;;5124792;27;19919;-56
2022/08/19 05:09:51;;;;;;;;;;;18.70;99.90;;;;;;5103826;27;19965;-56
2022/08/19 05:12:31;;;;;;;;;;;18.80;99.90;;;;;;5084892;28;20349;-56
2022/08/19 05:15:11;;;;;;;;;;;18.80;99.90;;;;;;5104262;27;20369;-57
2022/08/19 05:23:47;;;;;;;;;;;19.10;99.90;;;;;;5125481;27;20373;-56
2022/08/19 05:26:27;;;;;;;;;;;19.20;99.90;;;;;;5125204;27;19918;-56
2022/08/19 05:29:08;;;;;;;;;;;19.30;99.90;;;;;;5124721;27;19926;-56
2022/08/19 05:31:49;;;;;;;;;;;19.30;99.90;;;;;;5125577;27;20249;-55
2022/08/19 05:34:30;;;;;;;;;;;19.40;99.90;;;;;;5114678;27;19919;-56
2022/08/19 05:37:11;;;;;;;;;;;19.40;99.90;;;;;;5104728;27;19912;-56
2022/08/19 05:39:51;;;;;;;;;;;19.60;99.90;;;;;;5126890;27;19919;-56
2022/08/19 05:42:31;;;;;;;;;;;19.90;99.90;;;;;;5102586;27;19912;-56
2022/08/19 05:45:11;;;;;;;;;;;20.40;99.90;;;;;;5144358;27;19921;-55
2022/08/19 05:47:52;;;;;;;;;;;20.90;99.90;;;;;;5123685;27;20284;-56
2022/08/19 05:50:32;;;;;;;;;;;21.00;99.90;;;;;;5123406;27;19912;-55
2022/08/19 05:53:12;;;;;;;;;;;20.90;99.90;;;;;;5103708;27;19942;-57
2022/08/19 05:55:51;;;;;;;;;;;20.90;99.90;;;;;;5103684;27;19919;-56
2022/08/19 05:58:32;;;;;;;;;;;20.90;99.90;;;;;;5124375;27;19911;-56
2022/08/19 06:01:15;;;;;;;;;;;21.00;99.90;;;;;;5124371;27;19916;-56
2022/08/19 06:03:54;;;;;;;;;;;21.10;99.90;;;;;;5123235;27;19918;-56
2022/08/19 06:06:34;;;;;;;;;;;21.10;99.90;;;;;;5124136;27;20415;-56
2022/08/19 06:09:15;;;;;;;;;;;21.20;99.90;;;;;;5104213;27;19954;-56
2022/08/19 06:11:59;;;;;;;;;;;21.10;99.90;;;;;;5126089;27;19911;-56
2022/08/19 06:14:41;;;;;;;;;;;21.00;99.90;;;;;;5112835;27;20373;-56
2022/08/19 06:17:24;;;;;;;;;;;21.10;99.90;;;;;;5125669;27;19918;-57
2022/08/19 06:20:05;;;;;;;;;;;21.50;99.90;;;;;;5125085;27;19916;-56
2022/08/19 06:22:48;;;;;;;;;;;22.00;99.90;;;;;;5104885;27;19938;-56
2022/08/19 06:25:27;;;;;;;;;;;22.20;99.90;;;;;;5122736;27;19911;-56
2022/08/19 06:28:07;;;;;;;;;;;22.40;99.90;;;;;;5103038;27;20419;-56
2022/08/19 06:30:47;;;;;;;;;;;22.50;99.90;;;;;;5122893;27;20377;-56
2022/08/19 06:33:27;;;;;;;;;;;22.20;99.90;;;;;;5121893;27;19912;-56
2022/08/19 06:36:07;;;;;;;;;;;22.00;99.90;;;;;;5104405;27;19926;-56
2022/08/19 06:38:46;;;;;;;;;;;21.90;99.90;;;;;;5104231;27;19954;-56
2022/08/19 06:41:26;;;;;;;;;;;21.90;99.90;;;;;;5125388;27;19912;-56
2022/08/19 06:44:06;;;;;;;;;;;22.10;99.90;;;;;;5117720;27;20312;-56
2022/08/19 06:46:46;;;;;;;;;;;22.20;99.90;;;;;;5104588;27;20390;-56
2022/08/19 06:49:27;;;;;;;;;;;22.30;99.90;;;;;;5122831;27;19926;-57
2022/08/19 06:52:07;;;;;;;;;;;22.20;99.90;;;;;;5124936;27;19953;-56
2022/08/19 06:54:47;;;;;;;;;;;22.20;99.90;;;;;;5090804;27;19931;-56
2022/08/19 06:57:31;;;;;;;;;;;22.20;99.90;;;;;;5102979;27;19934;-56
2022/08/19 07:00:13;;;;;;;;;;;22.20;99.90;;;;;;5123296;27;19922;-56
2022/08/19 07:02:53;;;;;;;;;;;22.20;99.90;;;;;;5078884;27;19950;-56
2022/08/19 07:05:33;;;;;;;;;;;22.20;99.90;;;;;;5109226;27;20361;-56
2022/08/19 07:08:14;;;;;;;;;;;22.20;99.90;;;;;;5105418;27;19957;-56
2022/08/19 07:10:55;;;;;;;;;;;22.30;99.90;;;;;;5100132;27;20352;-56
2022/08/19 07:13:36;;;;;;;;;;;22.30;99.90;;;;;;5100515;27;19946;-57
2022/08/19 07:16:19;;;;;;;;;;;22.40;99.90;;;;;;5123841;27;20392;-56
2022/08/19 07:18:59;;;;;;;;;;;22.30;99.90;;;;;;5108960;27;19916;-56
2022/08/19 07:21:40;;;;;;;;;;;22.10;99.90;;;;;;5123126;27;20388;-56
2022/08/19 07:24:20;;;;;;;;;;;21.90;99.90;;;;;;5124548;27;19916;-57
2022/08/19 07:27:02;;;;;;;;;;;21.80;99.90;;;;;;5124319;27;19919;-57
2022/08/19 07:29:42;;;;;;;;;;;21.50;99.90;;;;;;5119614;27;19912;-57
2022/08/19 07:32:22;;;;;;;;;;;21.20;99.90;;;;;;5134260;27;19912;-57
2022/08/19 07:35:03;;;;;;;;;;;21.10;99.90;;;;;;5119804;27;19912;-57
2022/08/19 07:37:44;;;;;;;;;;;21.00;99.90;;;;;;5108364;27;19924;-57
2022/08/19 07:40:24;;;;;;;;;;;20.90;99.90;;;;;;5122574;27;19912;-57
2022/08/19 07:43:05;;;;;;;;;;;20.80;99.90;;;;;;5118677;27;20300;-57
2022/08/19 07:45:45;;;;;;;;;;;20.80;99.90;;;;;;5103083;27;20221;-57
2022/08/19 07:48:25;;;;;;;;;;;20.80;99.90;;;;;;5122859;27;19911;-57
2022/08/19 07:51:09;;;;;;;;;;;20.80;99.90;;;;;;5123980;27;19930;-57
2022/08/19 07:53:49;;;;;;;;;;;21.00;99.90;;;;;;5124641;27;19912;-57
2022/08/19 07:56:30;;;;;;;;;;;21.20;99.90;;;;;;5123589;27;19922;-57
2022/08/19 07:59:10;;;;;;;;;;;21.30;99.90;;;;;;5118758;27;19916;-57
2022/08/19 08:01:50;;;;;;;;;;;21.50;99.90;;;;;;5100257;27;19969;-57
2022/08/19 08:10:26;;;;;;;;;;;22.00;99.90;;;;;;5109620;27;19912;-57
2022/08/19 08:13:06;;;;;;;;;;;22.20;99.90;;;;;;5116432;27;20289;-57
2022/08/19 08:15:46;;;;;;;;;;;22.40;99.90;;;;;;5121545;27;19920;-57
2022/08/19 08:18:26;;;;;;;;;;;22.60;99.90;;;;;;5121999;27;19945;-57
2022/08/19 08:21:05;;;;;;;;;;;22.90;99.90;;;;;;5121875;27;20414;-57
2022/08/19 08:23:46;;;;;;;;;;;22.90;99.90;;;;;;5118824;27;19920;-57
2022/08/19 08:26:28;;;;;;;;;;;23.00;99.90;;;;;;5124058;27;19918;-57
2022/08/19 08:29:12;;;;;;;;;;;22.90;99.90;;;;;;5122746;27;19938;-57
2022/08/19 08:31:53;;;;;;;;;;;22.90;99.90;;;;;;5123606;27;20395;-57
2022/08/19 08:34:34;;;;;;;;;;;23.10;99.90;;;;;;5111931;27;19928;-57
2022/08/19 08:37:14;;;;;;;;;;;23.30;99.90;;;;;;5121830;27;19919;-57
2022/08/19 08:39:54;;;;;;;;;;;23.40;99.90;;;;;;5122184;27;20308;-57
2022/08/19 08:42:37;;;;;;;;;;;23.40;99.90;;;;;;5112439;27;20612;-57
2022/08/19 08:45:18;;;;;;;;;;;23.30;99.90;;;;;;5116996;27;20559;-57
2022/08/19 08:48:00;;;;;;;;;;;23.30;99.90;;;;;;5104395;27;19912;-56
2022/08/19 08:50:43;;;;;;;;;;;23.50;99.90;;;;;;5092444;27;19927;-57
2022/08/19 08:53:25;;;;;;;;;;;23.60;99.90;;;;;;5121533;27;19922;-57
2022/08/19 08:56:08;;;;;;;;;;;23.70;99.90;;;;;;5123112;27;20277;-57
2022/08/19 08:58:52;;;;;;;;;;;23.90;99.90;;;;;;5101627;27;19912;-57
2022/08/19 09:01:32;;;;;;;;;;;24.00;99.90;;;;;;5102174;27;19912;-57
2022/08/19 09:04:12;;;;;;;;;;;24.20;99.90;;;;;;5092456;27;19957;-57
2022/08/19 09:06:55;;;;;;;;;;;24.30;99.90;;;;;;5127741;27;19921;-57
2022/08/19 09:09:40;;;;;;;;;;;24.50;99.90;;;;;;5122170;27;19912;-57
2022/08/19 09:12:23;;;;;;;;;;;24.80;99.90;;;;;;5103044;27;20332;-57
2022/08/19 09:15:06;;;;;;;;;;;25.10;99.90;;;;;;5122960;27;19911;-57
2022/08/19 09:17:45;;;;;;;;;;;25.20;99.90;;;;;;5122595;27;19912;-57
2022/08/19 09:20:25;;;;;;;;;;;25.80;99.90;;;;;;5123443;27;19922;-57
2022/08/19 09:23:05;;;;;;;;;;;26.50;99.90;;;;;;5123065;27;19922;-57
2022/08/19 09:25:44;;;;;;;;;;;27.10;99.90;;;;;;5102093;27;19973;-57
2022/08/19 09:28:25;;;;;;;;;;;27.60;99.90;;;;;;5122788;27;19934;-58
2022/08/19 09:31:06;;;;;;;;;;;27.70;99.90;;;;;;5122469;27;19920;-58
2022/08/19 09:33:46;;;;;;;;;;;27.60;99.90;;;;;;5097425;27;19924;-58
2022/08/19 09:36:28;;;;;;;;;;;27.10;99.90;;;;;;5102537;27;20479;-57
2022/08/19 09:39:08;;;;;;;;;;;26.80;99.90;;;;;;5122528;27;19922;-57
2022/08/19 09:41:49;;;;;;;;;;;26.40;99.90;;;;;;5123345;27;19916;-57
2022/08/19 09:44:30;;;;;;;;;;;25.90;99.90;;;;;;5113159;27;19912;-58
2022/08/19 09:47:11;;;;;;;;;;;25.80;99.90;;;;;;5123597;27;19912;-57
2022/08/19 09:49:51;;;;;;;;;;;25.60;99.90;;;;;;5144190;27;20383;-57
2022/08/19 09:52:31;;;;;;;;;;;25.10;99.90;;;;;;5124025;27;20276;-58
2022/08/19 09:55:11;;;;;;;;;;;24.70;99.90;;;;;;5124473;27;19919;-58
2022/08/19 09:57:50;;;;;;;;;;;24.60;99.90;;;;;;5104382;27;19954;-57
2022/08/19 10:00:31;;;;;;;;;;;24.50;99.90;;;;;;5124932;27;19953;-57
2022/08/19 10:03:12;;;;;;;;;;;24.40;99.90;;;;;;5112491;27;19922;-57
2022/08/19 10:05:52;;;;;;;;;;;24.20;99.90;;;;;;5104135;27;19950;-57
2022/08/19 10:08:33;;;;;;;;;;;24.00;99.90;;;;;;5124558;27;19916;-57
2022/08/19 10:11:15;;;;;;;;;;;24.20;99.90;;;;;;5116433;27;19923;-57
2022/08/19 10:13:56;;;;;;;;;;;24.60;99.90;;;;;;5121514;27;19927;-57
2022/08/19 10:16:37;;;;;;;;;;;25.30;99.90;;;;;;5122734;27;19916;-57
2022/08/19 10:19:17;;;;;;;;;;;25.60;99.90;;;;;;5123282;27;19946;-57
2022/08/19 10:21:57;;;;;;;;;;;25.80;99.90;;;;;;5123991;27;20335;-55
2022/08/19 10:24:37;;;;;;;;;;;25.80;99.90;;;;;;5096806;27;19926;-55
2022/08/19 10:27:17;;;;;;;;;;;25.70;99.90;;;;;;5121806;27;19916;-57
2022/08/19 10:29:58;;;;;;;;;;;25.50;99.90;;;;;;5122112;27;20024;-58
2022/08/19 10:32:38;;;;;;;;;;;25.30;99.90;;;;;;5101810;27;19926;-55
2022/08/19 10:35:18;;;;;;;;;;;25.20;99.90;;;;;;5123244;27;19942;-57
2022/08/19 10:37:58;;;;;;;;;;;25.20;99.90;;;;;;5123925;27;19926;-57
2022/08/19 10:40:39;;;;;;;;;;;25.30;99.90;;;;;;5102460;27;20314;-57
2022/08/19 10:43:19;;;;;;;;;;;25.30;99.90;;;;;;5096376;27;19922;-57
2022/08/19 10:45:59;;;;;;;;;;;25.30;99.90;;;;;;5102766;27;19919;-57
2022/08/19 10:48:38;;;;;;;;;;;25.20;99.90;;;;;;5117716;27;19912;-57
2022/08/19 10:54:16;;;;;;;;;;;24.80;99.90;;;;;;5114363;27;20266;-57
2022/08/19 10:56:55;;;;;;;;;;;24.50;99.90;;;;;;5124106;27;19911;-57
2022/08/19 10:59:35;;;;;;;;;;;24.30;99.90;;;;;;5102920;27;19930;-57
2022/08/19 11:02:15;;;;;;;;;;;24.20;99.90;;;;;;5123999;27;19918;-57
2022/08/19 11:04:55;;;;;;;;;;;24.40;99.90;;;;;;5103002;27;19969;-57
2022/08/19 11:07:35;;;;;;;;;;;24.50;99.90;;;;;;5123084;27;19920;-57
2022/08/19 11:10:18;;;;;;;;;;;24.70;99.90;;;;;;5124089;27;19912;-57
2022/08/19 11:13:00;;;;;;;;;;;25.00;99.90;;;;;;5102990;27;20180;-57
2022/08/19 11:15:41;;;;;;;;;;;25.20;99.90;;;;;;5102363;27;20348;-57
2022/08/19 11:18:20;;;;;;;;;;;25.50;99.90;;;;;;5102353;27;19916;-57
2022/08/19 11:21:07;;;;;;;;;;;25.70;99.90;;;;;;5134704;27;19915;-57
2022/08/19 11:23:47;;;;;;;;;;;25.60;99.90;;;;;;5129773;27;20322;-57
2022/08/19 11:26:29;;;;;;;;;;;25.50;99.90;;;;;;5123714;27;19915;-57
2022/08/19 11:29:12;;;;;;;;;;;25.40;99.90;;;;;;5104122;27;19912;-57
2022/08/19 11:31:53;;;;;;;;;;;25.30;99.90;;;;;;5125656;27;20282;-57
2022/08/19 11:34:32;;;;;;;;;;;25.20;99.90;;;;;;5125185;27;19931;-57
2022/08/19 11:37:12;;;;;;;;;;;25.10;99.90;;;;;;5145948;27;19922;-57
2022/08/19 11:39:53;;;;;;;;;;;24.80;99.90;;;;;;5124498;27;19912;-57
2022/08/19 11:45:31;;;;;;;;;;;24.50;99.90;;;;;;5125130;27;19915;-57
2022/08/19 11:48:11;;;;;;;;;;;24.30;99.90;;;;;;5104649;27;19942;-57
2022/08/19 11:50:51;;;;;;;;;;;24.20;99.90;;;;;;5145511;27;19918;-57
2022/08/19 11:53:30;;;;;;;;;;;23.80;99.90;;;;;;5125367;27;19916;-57
2022/08/19 11:56:10;;;;;;;;;;;23.50;99.90;;;;;;5125424;27;20463;-57
2022/08/19 11:58:50;;;;;;;;;;;23.40;99.90;;;;;;5124398;27;19922;-57
2022/08/19 12:01:31;;;;;;;;;;;23.20;99.90;;;;;;5125124;27;19919;-57
2022/08/19 12:04:11;;;;;;;;;;;23.00;99.90;;;;;;5116765;27;20259;-57
2022/08/19 12:06:51;;;;;;;;;;;23.00;99.90;;;;;;5145680;27;20319;-57
2022/08/19 12:09:31;;;;;;;;;;;23.00;99.90;;;;;;5124476;27;19918;-57
2022/08/19 12:12:11;;;;;;;;;;;23.10;99.90;;;;;;5125643;27;19912;-57
2022/08/19 12:14:56;;;;;;;;;;;23.20;99.90;;;;;;5105377;27;19916;-57
2022/08/19 12:17:37;;;;;;;;;;;23.50;99.90;;;;;;5125150;27;19918;-57
2022/08/19 12:20:17;;;;;;;;;;;23.70;99.90;;;;;;5104358;27;19923;-57
2022/08/19 12:22:56;;;;;;;;;;;23.80;99.90;;;;;;5125900;27;19918;-57
2022/08/19 12:25:37;;;;;;;;;;;23.70;99.90;;;;;;5125303;27;19916;-57
2022/08/19 12:28:16;;;;;;;;;;;23.90;99.90;;;;;;5125256;27;20296;-57
2022/08/19 12:30:56;;;;;;;;;;;24.00;99.90;;;;;;5125120;27;19922;-57
2022/08/19 12:33:37;;;;;;;;;;;23.50;99.90;;;;;;5121899;27;19926;-57
2022/08/19 12:36:18;;;;;;;;;;;23.20;99.90;;;;;;5104450;27;20176;-57
2022/08/19 12:39:00;;;;;;;;;;;23.40;99.90;;;;;;5124610;27;19915;-57
2022/08/19 12:41:40;;;;;;;;;;;23.70;99.90;;;;;;5125432;27;20381;-57
2022/08/19 12:44:20;;;;;;;;;;;24.20;99.90;;;;;;5096978;27;19930;-57
2022/08/19 12:47:00;;;;;;;;;;;25.00;99.90;;;;;;5099984;27;19953;-57
2022/08/19 12:49:40;;;;;;;;;;;25.40;99.90;;;;;;5120061;27;19918;-57
2022/08/19 12:52:20;;;;;;;;;;;25.40;99.90;;;;;;5102240;27;20320;-57
2022/08/19 12:55:01;;;;;;;;;;;25.40;99.90;;;;;;5064032;27;19913;-57
2022/08/19 12:57:41;;;;;;;;;;;25.20;99.90;;;;;;5123380;27;19926;-57
2022/08/19 13:00:22;;;;;;;;;;;25.10;99.90;;;;;;5124464;27;19915;-57
2022/08/19 13:03:02;;;;;;;;;;;25.20;99.90;;;;;;5081233;28;19913;-57
2022/08/19 13:05:42;;;;;;;;;;;25.20;99.90;;;;;;5119129;27;19916;-57
2022/08/19 13:08:21;;;;;;;;;;;25.20;99.90;;;;;;5096308;27;19912;-57
2022/08/19 13:11:11;;;;;;;;;;;25.20;99.90;;;;;;5119107;27;19918;-57
2022/08/19 13:13:52;;;;;;;;;;;25.00;99.90;;;;;;5132502;27;19926;-57
2022/08/19 13:16:32;;;;;;;;;;;25.00;99.90;;;;;;5078390;28;20582;-57
2022/08/19 13:19:13;;;;;;;;;;;25.00;99.90;;;;;;5119645;27;19945;-57
2022/08/19 13:21:55;;;;;;;;;;;24.80;99.90;;;;;;5103219;27;19919;-57
2022/08/19 13:24:36;;;;;;;;;;;24.50;99.90;;;;;;5093219;27;20321;-56
2022/08/19 13:27:16;;;;;;;;;;;24.70;99.90;;;;;;5125200;27;19911;-56
2022/08/19 13:33:13;;;;;;;;;;;24.70;99.90;;;;;;5125213;27;20278;-57
2022/08/19 13:35:59;;;;;;;;;;;24.60;99.90;;;;;;5125585;27;20387;-56
2022/08/19 13:38:39;;;;;;;;;;;24.30;99.90;;;;;;5124549;27;20399;-55
2022/08/19 13:41:19;;;;;;;;;;;24.30;99.90;;;;;;5124805;27;19918;-56
2022/08/19 13:43:58;;;;;;;;;;;24.50;99.90;;;;;;5119411;27;19942;-56
2022/08/19 13:46:38;;;;;;;;;;;24.30;99.90;;;;;;5125002;27;20575;-56
2022/08/19 13:49:20;;;;;;;;;;;24.20;99.90;;;;;;5124387;27;20300;-57
2022/08/19 13:52:00;;;;;;;;;;;24.40;99.90;;;;;;5105223;27;19978;-56
2022/08/19 13:54:39;;;;;;;;;;;24.80;99.90;;;;;;5092382;27;19919;-56
2022/08/19 13:57:19;;;;;;;;;;;25.00;99.90;;;;;;5125453;27;20262;-56
2022/08/19 13:59:59;;;;;;;;;;;24.80;99.90;;;;;;5124596;27;19912;-56
2022/08/19 14:02:39;;;;;;;;;;;24.50;99.90;;;;;;5125172;27;19912;-56
2022/08/19 14:05:21;;;;;;;;;;;24.10;99.90;;;;;;5104450;27;20339;-56
2022/08/19 14:08:02;;;;;;;;;;;23.80;99.90;;;;;;5123929;27;19916;-58
2022/08/19 14:10:43;;;;;;;;;;;23.70;99.90;;;;;;5123156;27;19920;-56
2022/08/19 14:13:24;;;;;;;;;;;23.80;99.90;;;;;;5144445;27;19912;-56
2022/08/19 14:16:09;;;;;;;;;;;24.00;99.90;;;;;;5124326;27;19916;-56
2022/08/19 14:18:49;;;;;;;;;;;24.00;99.90;;;;;;5123246;27;20369;-56
2022/08/19 14:21:29;;;;;;;;;;;23.90;99.90;;;;;;5099760;27;19916;-56
2022/08/19 14:24:09;;;;;;;;;;;24.00;99.90;;;;;;5117776;27;19912;-57
2022/08/19 14:26:50;;;;;;;;;;;24.00;99.90;;;;;;5120881;27;20338;-56
2022/08/19 14:29:30;;;;;;;;;;;24.00;99.90;;;;;;5123591;27;19912;-56
2022/08/19 14:32:10;;;;;;;;;;;24.00;99.90;;;;;;5124554;27;19922;-55
2022/08/19 14:34:50;;;;;;;;;;;23.90;99.90;;;;;;5090090;27;19916;-57
2022/08/19 14:37:29;;;;;;;;;;;24.00;99.90;;;;;;5124929;27;19916;-56
2022/08/19 14:40:11;;;;;;;;;;;24.00;99.90;;;;;;5124584;27;19918;-55
2022/08/19 14:42:51;;;;;;;;;;;24.00;99.90;;;;;;5104528;27;19912;-56
2022/08/19 14:45:31;;;;;;;;;;;23.90;99.90;;;;;;5124962;27;19916;-56
2022/08/19 14:48:12;;;;;;;;;;;23.90;99.90;;;;;;5084009;28;19913;-57
2022/08/19 14:50:52;;;;;;;;;;;23.70;99.90;;;;;;5124696;27;19918;-56
2022/08/19 14:53:33;;;;;;;;;;;23.80;99.90;;;;;;5122658;27;19918;-56
2022/08/19 14:56:14;;;;;;;;;;;23.90;99.90;;;;;;5124984;27;20320;-56
2022/08/19 14:58:54;;;;;;;;;;;23.80;99.90;;;;;;5124873;27;19942;-56
2022/08/19 15:01:34;;;;;;;;;;;23.50;99.90;;;;;;5125498;27;19919;-58
2022/08/19 15:04:14;;;;;;;;;;;23.30;99.90;;;;;;5096888;27;20309;-56
2022/08/19 15:06:54;;;;;;;;;;;23.30;99.90;;;;;;5124981;27;20296;-56
2022/08/19 15:09:34;;;;;;;;;;;23.40;99.90;;;;;;5124376;27;19919;-56
2022/08/19 15:12:14;;;;;;;;;;;23.30;99.90;;;;;;5105367;27;19926;-57
2022/08/19 15:14:54;;;;;;;;;;;23.20;99.90;;;;;;5104820;27;19946;-56
2022/08/19 15:17:37;;;;;;;;;;;22.70;99.90;;;;;;5124692;27;19918;-56
2022/08/19 15:20:18;;;;;;;;;;;21.70;99.90;;;;;;5124811;27;19918;-57
2022/08/19 15:22:58;;;;;;;;;;;20.90;99.90;;;;;;5104742;27;19926;-56
2022/08/19 15:25:38;;;;;;;;;;;20.20;99.90;;;;;;5124644;27;19926;-56
2022/08/19 15:28:17;;;;;;;;;;;19.80;99.90;;;;;;5125237;27;19912;-56
2022/08/19 15:30:57;;;;;;;;;;;19.60;99.90;;;;;;5104382;27;19957;-56
2022/08/19 15:33:37;;;;;;;;;;;19.40;99.90;;;;;;5121636;27;20328;-56
2022/08/19 15:36:17;;;;;;;;;;;19.30;99.90;;;;;;5125439;27;20369;-57
2022/08/19 15:38:57;;;;;;;;;;;19.20;99.90;;;;;;5124327;27;19916;-57
2022/08/19 15:41:39;;;;;;;;;;;19.10;99.90;;;;;;5125068;27;19912;-56
2022/08/19 15:44:20;;;;;;;;;;;19.00;99.90;;;;;;5116056;27;20250;-57
2022/08/19 15:47:01;;;;;;;;;;;18.90;99.90;;;;;;5145904;27;20307;-56
2022/08/19 15:49:41;;;;;;;;;;;18.70;99.90;;;;;;5124749;27;19935;-56
2022/08/19 15:52:22;;;;;;;;;;;18.60;99.90;;;;;;5104684;27;19926;-55
2022/08/19 15:55:05;;;;;;;;;;;18.60;99.90;;;;;;5125099;27;19918;-56
2022/08/19 16:06:39;;;;;;;;;;;18.60;99.90;;;;;;5125381;27;19911;-57